sensor_id;sensor_type;location;lat;lon;timestamp;P1;durP1;ratioP1;P2;durP2;ratioP2
41903;SDS011;27586;51.124;4.182;2023-04-09T00:01:02;25.75;;;23.40;;
41903;SDS011;27586;51.124;4.182;2023-04-09T00:03:32;25.23;;;22.85;;
41903;SDS011;27586;51.124;4.182;2023-04-09T00:06:00;25.42;;;22.83;;
41903;SDS011;27586;51.124;4.182;2023-04-09T00:08:26;23.88;;;21.67;;
41903;SDS011;27586;51.124;4.182;2023-04-09T00:10:52;23.42;;;21.15;;
41903;SDS011;27586;51.124;4.182;2023-04-09T00:13:18;24.02;;;21.83;;
41903;SDS011;27586;51.124;4.182;2023-04-09T00:15:44;23.25;;;21.00;;
41903;SDS011;27586;51.124;4.182;2023-04-09T00:18:11;21.55;;;19.63;;
41903;SDS011;27586;51.124;4.182;2023-04-09T00:20:37;23.85;;;21.35;;
41903;SDS011;27586;51.124;4.182;2023-04-09T00:23:03;23.08;;;20.85;;
41903;SDS011;27586;51.124;4.182;2023-04-09T00:25:28;23.02;;;20.88;;
41903;SDS011;27586;51.124;4.182;2023-04-09T00:27:54;22.92;;;20.65;;
41903;SDS011;27586;51.124;4.182;2023-04-09T00:30:20;22.05;;;20.05;;
41903;SDS011;27586;51.124;4.182;2023-04-09T00:32:47;22.15;;;20.05;;
41903;SDS011;27586;51.124;4.182;2023-04-09T00:35:13;22.33;;;20.10;;
41903;SDS011;27586;51.124;4.182;2023-04-09T00:37:40;23.05;;;20.80;;
41903;SDS011;27586;51.124;4.182;2023-04-09T00:40:06;22.67;;;20.38;;
41903;SDS011;27586;51.124;4.182;2023-04-09T00:42:35;21.73;;;19.70;;
41903;SDS011;27586;51.124;4.182;2023-04-09T00:45:01;23.02;;;20.83;;
41903;SDS011;27586;51.124;4.182;2023-04-09T00:47:28;21.65;;;19.50;;
41903;SDS011;27586;51.124;4.182;2023-04-09T00:49:55;24.25;;;21.95;;
41903;SDS011;27586;51.124;4.182;2023-04-09T00:52:21;22.95;;;20.60;;
41903;SDS011;27586;51.124;4.182;2023-04-09T00:54:48;22.52;;;20.40;;
41903;SDS011;27586;51.124;4.182;2023-04-09T00:57:15;23.00;;;20.90;;
41903;SDS011;27586;51.124;4.182;2023-04-09T00:59:42;22.73;;;20.42;;
41903;SDS011;27586;51.124;4.182;2023-04-09T01:02:11;23.35;;;21.15;;
41903;SDS011;27586;51.124;4.182;2023-04-09T01:04:37;23.67;;;21.27;;
41903;SDS011;27586;51.124;4.182;2023-04-09T01:07:12;23.52;;;21.33;;
41903;SDS011;27586;51.124;4.182;2023-04-09T01:10:15;23.17;;;20.98;;
41903;SDS011;27586;51.124;4.182;2023-04-09T01:16:15;23.83;;;21.52;;
41903;SDS011;27586;51.124;4.182;2023-04-09T01:18:43;25.67;;;23.15;;
41903;SDS011;27586;51.124;4.182;2023-04-09T01:21:22;24.25;;;21.90;;
41903;SDS011;27586;51.124;4.182;2023-04-09T01:26:21;24.40;;;21.90;;
41903;SDS011;27586;51.124;4.182;2023-04-09T01:28:56;25.50;;;22.95;;
41903;SDS011;27586;51.124;4.182;2023-04-09T01:31:25;24.65;;;22.25;;
41903;SDS011;27586;51.124;4.182;2023-04-09T01:33:54;25.80;;;23.15;;
41903;SDS011;27586;51.124;4.182;2023-04-09T01:36:21;24.85;;;22.45;;
41903;SDS011;27586;51.124;4.182;2023-04-09T01:38:50;25.20;;;22.70;;
41903;SDS011;27586;51.124;4.182;2023-04-09T01:41:18;24.80;;;22.38;;
41903;SDS011;27586;51.124;4.182;2023-04-09T01:43:48;25.95;;;23.52;;
41903;SDS011;27586;51.124;4.182;2023-04-09T01:46:15;25.92;;;23.33;;
41903;SDS011;27586;51.124;4.182;2023-04-09T01:48:45;26.52;;;23.95;;
41903;SDS011;27586;51.124;4.182;2023-04-09T01:51:12;26.25;;;23.60;;
41903;SDS011;27586;51.124;4.182;2023-04-09T01:53:38;26.77;;;24.08;;
41903;SDS011;27586;51.124;4.182;2023-04-09T01:56:05;28.08;;;25.27;;
41903;SDS011;27586;51.124;4.182;2023-04-09T01:58:31;26.52;;;23.92;;
41903;SDS011;27586;51.124;4.182;2023-04-09T02:01:04;26.23;;;23.63;;
41903;SDS011;27586;51.124;4.182;2023-04-09T02:03:40;26.77;;;24.08;;
41903;SDS011;27586;51.124;4.182;2023-04-09T02:08:51;27.35;;;24.55;;
41903;SDS011;27586;51.124;4.182;2023-04-09T02:11:17;27.02;;;24.23;;
41903;SDS011;27586;51.124;4.182;2023-04-09T02:13:45;26.75;;;24.15;;
41903;SDS011;27586;51.124;4.182;2023-04-09T02:16:15;26.52;;;23.60;;
41903;SDS011;27586;51.124;4.182;2023-04-09T02:18:41;27.00;;;24.35;;
41903;SDS011;27586;51.124;4.182;2023-04-09T02:21:08;27.92;;;24.98;;
41903;SDS011;27586;51.124;4.182;2023-04-09T02:23:35;27.80;;;25.00;;
41903;SDS011;27586;51.124;4.182;2023-04-09T02:26:00;26.98;;;24.27;;
41903;SDS011;27586;51.124;4.182;2023-04-09T02:28:26;26.40;;;23.85;;
41903;SDS011;27586;51.124;4.182;2023-04-09T02:30:52;26.23;;;23.58;;
41903;SDS011;27586;51.124;4.182;2023-04-09T02:33:17;25.98;;;23.38;;
41903;SDS011;27586;51.124;4.182;2023-04-09T02:35:43;26.67;;;24.15;;
41903;SDS011;27586;51.124;4.182;2023-04-09T02:38:09;28.02;;;25.17;;
41903;SDS011;27586;51.124;4.182;2023-04-09T02:40:39;27.15;;;24.35;;
41903;SDS011;27586;51.124;4.182;2023-04-09T02:43:05;28.90;;;25.90;;
41903;SDS011;27586;51.124;4.182;2023-04-09T02:45:31;29.52;;;26.52;;
41903;SDS011;27586;51.124;4.182;2023-04-09T02:47:57;30.88;;;27.73;;
41903;SDS011;27586;51.124;4.182;2023-04-09T02:50:22;30.25;;;27.25;;
41903;SDS011;27586;51.124;4.182;2023-04-09T02:52:48;30.38;;;27.30;;
41903;SDS011;27586;51.124;4.182;2023-04-09T02:55:14;30.75;;;27.65;;
41903;SDS011;27586;51.124;4.182;2023-04-09T02:57:40;30.80;;;27.70;;
41903;SDS011;27586;51.124;4.182;2023-04-09T03:00:06;31.85;;;28.48;;
41903;SDS011;27586;51.124;4.182;2023-04-09T03:02:32;32.53;;;29.17;;
41903;SDS011;27586;51.124;4.182;2023-04-09T03:04:58;35.38;;;31.65;;
41903;SDS011;27586;51.124;4.182;2023-04-09T03:07:24;32.58;;;29.23;;
41903;SDS011;27586;51.124;4.182;2023-04-09T03:09:49;33.42;;;29.70;;
41903;SDS011;27586;51.124;4.182;2023-04-09T03:12:15;35.30;;;31.80;;
41903;SDS011;27586;51.124;4.182;2023-04-09T03:14:40;34.45;;;30.75;;
41903;SDS011;27586;51.124;4.182;2023-04-09T03:17:06;35.88;;;31.95;;
41903;SDS011;27586;51.124;4.182;2023-04-09T03:19:32;35.78;;;31.95;;
41903;SDS011;27586;51.124;4.182;2023-04-09T03:21:58;37.30;;;33.30;;
41903;SDS011;27586;51.124;4.182;2023-04-09T03:24:23;35.95;;;32.20;;
41903;SDS011;27586;51.124;4.182;2023-04-09T03:26:49;36.40;;;32.38;;
41903;SDS011;27586;51.124;4.182;2023-04-09T03:29:14;35.90;;;32.05;;
41903;SDS011;27586;51.124;4.182;2023-04-09T03:31:40;36.38;;;32.38;;
41903;SDS011;27586;51.124;4.182;2023-04-09T03:34:06;35.65;;;31.85;;
41903;SDS011;27586;51.124;4.182;2023-04-09T03:36:32;37.53;;;33.50;;
41903;SDS011;27586;51.124;4.182;2023-04-09T03:38:57;36.83;;;32.95;;
41903;SDS011;27586;51.124;4.182;2023-04-09T03:41:24;38.45;;;34.22;;
41903;SDS011;27586;51.124;4.182;2023-04-09T03:43:50;37.50;;;33.53;;
41903;SDS011;27586;51.124;4.182;2023-04-09T03:46:16;40.72;;;35.75;;
41903;SDS011;27586;51.124;4.182;2023-04-09T03:48:42;40.65;;;35.10;;
41903;SDS011;27586;51.124;4.182;2023-04-09T03:51:13;39.85;;;35.50;;
41903;SDS011;27586;51.124;4.182;2023-04-09T03:53:39;39.72;;;35.38;;
41903;SDS011;27586;51.124;4.182;2023-04-09T03:56:06;38.38;;;34.33;;
41903;SDS011;27586;51.124;4.182;2023-04-09T03:58:32;37.80;;;32.90;;
41903;SDS011;27586;51.124;4.182;2023-04-09T04:00:58;37.35;;;33.35;;
41903;SDS011;27586;51.124;4.182;2023-04-09T04:03:23;36.15;;;32.30;;
41903;SDS011;27586;51.124;4.182;2023-04-09T04:05:49;35.67;;;31.95;;
41903;SDS011;27586;51.124;4.182;2023-04-09T04:08:15;34.58;;;30.98;;
41903;SDS011;27586;51.124;4.182;2023-04-09T04:10:40;33.08;;;29.85;;
41903;SDS011;27586;51.124;4.182;2023-04-09T04:13:06;32.90;;;29.52;;
41903;SDS011;27586;51.124;4.182;2023-04-09T04:15:32;32.97;;;29.48;;
41903;SDS011;27586;51.124;4.182;2023-04-09T04:18:03;33.42;;;29.88;;
41903;SDS011;27586;51.124;4.182;2023-04-09T04:20:28;35.35;;;31.60;;
41903;SDS011;27586;51.124;4.182;2023-04-09T04:22:57;36.00;;;32.20;;
41903;SDS011;27586;51.124;4.182;2023-04-09T04:25:22;36.67;;;32.72;;
41903;SDS011;27586;51.124;4.182;2023-04-09T04:27:48;37.25;;;32.88;;
41903;SDS011;27586;51.124;4.182;2023-04-09T04:30:14;36.95;;;32.53;;
41903;SDS011;27586;51.124;4.182;2023-04-09T04:32:40;37.85;;;33.75;;
41903;SDS011;27586;51.124;4.182;2023-04-09T04:35:06;38.45;;;34.35;;
41903;SDS011;27586;51.124;4.182;2023-04-09T04:37:31;36.88;;;33.08;;
41903;SDS011;27586;51.124;4.182;2023-04-09T04:39:59;39.42;;;34.72;;
41903;SDS011;27586;51.124;4.182;2023-04-09T04:42:25;38.88;;;34.75;;
41903;SDS011;27586;51.124;4.182;2023-04-09T04:44:51;43.08;;;37.55;;
41903;SDS011;27586;51.124;4.182;2023-04-09T04:47:17;39.83;;;35.65;;
41903;SDS011;27586;51.124;4.182;2023-04-09T04:49:43;40.97;;;35.70;;
41903;SDS011;27586;51.124;4.182;2023-04-09T04:52:09;39.75;;;35.42;;
41903;SDS011;27586;51.124;4.182;2023-04-09T04:54:35;40.13;;;35.75;;
41903;SDS011;27586;51.124;4.182;2023-04-09T04:57:01;40.35;;;35.95;;
41903;SDS011;27586;51.124;4.182;2023-04-09T04:59:26;39.17;;;34.97;;
41903;SDS011;27586;51.124;4.182;2023-04-09T05:01:52;40.80;;;36.40;;
41903;SDS011;27586;51.124;4.182;2023-04-09T05:04:18;41.60;;;37.05;;
41903;SDS011;27586;51.124;4.182;2023-04-09T05:06:43;39.08;;;34.88;;
41903;SDS011;27586;51.124;4.182;2023-04-09T05:09:09;38.15;;;34.03;;
41903;SDS011;27586;51.124;4.182;2023-04-09T05:11:35;39.72;;;35.00;;
41903;SDS011;27586;51.124;4.182;2023-04-09T05:14:01;40.42;;;35.55;;
41903;SDS011;27586;51.124;4.182;2023-04-09T05:16:27;37.50;;;33.50;;
41903;SDS011;27586;51.124;4.182;2023-04-09T05:18:53;38.50;;;34.35;;
41903;SDS011;27586;51.124;4.182;2023-04-09T05:21:19;39.40;;;35.00;;
41903;SDS011;27586;51.124;4.182;2023-04-09T05:23:44;39.60;;;35.28;;
41903;SDS011;27586;51.124;4.182;2023-04-09T05:26:10;39.97;;;35.65;;
41903;SDS011;27586;51.124;4.182;2023-04-09T05:28:36;38.92;;;33.08;;
41903;SDS011;27586;51.124;4.182;2023-04-09T05:31:02;38.45;;;34.22;;
41903;SDS011;27586;51.124;4.182;2023-04-09T05:33:27;39.05;;;34.80;;
41903;SDS011;27586;51.124;4.182;2023-04-09T05:35:53;39.30;;;34.85;;
41903;SDS011;27586;51.124;4.182;2023-04-09T05:38:19;41.33;;;36.03;;
41903;SDS011;27586;51.124;4.182;2023-04-09T05:40:44;40.88;;;35.55;;
41903;SDS011;27586;51.124;4.182;2023-04-09T05:43:10;38.53;;;34.42;;
41903;SDS011;27586;51.124;4.182;2023-04-09T05:45:39;39.38;;;35.08;;
41903;SDS011;27586;51.124;4.182;2023-04-09T05:48:05;40.08;;;35.83;;
41903;SDS011;27586;51.124;4.182;2023-04-09T05:50:30;39.95;;;35.03;;
41903;SDS011;27586;51.124;4.182;2023-04-09T05:52:56;40.22;;;35.92;;
41903;SDS011;27586;51.124;4.182;2023-04-09T05:55:22;44.42;;;38.83;;
41903;SDS011;27586;51.124;4.182;2023-04-09T05:57:47;41.60;;;36.67;;
41903;SDS011;27586;51.124;4.182;2023-04-09T06:00:16;40.13;;;35.83;;
41903;SDS011;27586;51.124;4.182;2023-04-09T06:02:42;40.65;;;36.25;;
41903;SDS011;27586;51.124;4.182;2023-04-09T06:05:09;42.50;;;37.67;;
41903;SDS011;27586;51.124;4.182;2023-04-09T06:07:35;40.42;;;36.03;;
41903;SDS011;27586;51.124;4.182;2023-04-09T06:10:01;36.53;;;32.53;;
41903;SDS011;27586;51.124;4.182;2023-04-09T06:12:26;35.08;;;31.38;;
41903;SDS011;27586;51.124;4.182;2023-04-09T06:14:52;37.60;;;32.05;;
41903;SDS011;27586;51.124;4.182;2023-04-09T06:17:18;36.38;;;32.42;;
41903;SDS011;27586;51.124;4.182;2023-04-09T06:19:43;38.75;;;34.65;;
41903;SDS011;27586;51.124;4.182;2023-04-09T06:22:09;41.47;;;35.45;;
41903;SDS011;27586;51.124;4.182;2023-04-09T06:24:35;40.63;;;36.22;;
41903;SDS011;27586;51.124;4.182;2023-04-09T06:27:01;40.75;;;36.30;;
41903;SDS011;27586;51.124;4.182;2023-04-09T06:29:26;41.42;;;36.95;;
41903;SDS011;27586;51.124;4.182;2023-04-09T06:31:52;41.47;;;35.97;;
41903;SDS011;27586;51.124;4.182;2023-04-09T06:34:18;42.28;;;37.03;;
41903;SDS011;27586;51.124;4.182;2023-04-09T06:36:43;43.97;;;36.20;;
41903;SDS011;27586;51.124;4.182;2023-04-09T06:39:09;41.42;;;36.72;;
41903;SDS011;27586;51.124;4.182;2023-04-09T06:41:35;43.58;;;36.78;;
41903;SDS011;27586;51.124;4.182;2023-04-09T06:44:01;42.17;;;36.83;;
41903;SDS011;27586;51.124;4.182;2023-04-09T06:46:26;43.63;;;38.58;;
41903;SDS011;27586;51.124;4.182;2023-04-09T06:48:52;43.92;;;38.40;;
41903;SDS011;27586;51.124;4.182;2023-04-09T06:51:18;43.63;;;38.85;;
41903;SDS011;27586;51.124;4.182;2023-04-09T06:53:44;43.28;;;38.28;;
41903;SDS011;27586;51.124;4.182;2023-04-09T06:56:12;44.30;;;37.58;;
41903;SDS011;27586;51.124;4.182;2023-04-09T06:58:37;43.22;;;37.83;;
41903;SDS011;27586;51.124;4.182;2023-04-09T07:01:03;46.22;;;38.78;;
41903;SDS011;27586;51.124;4.182;2023-04-09T07:03:29;46.13;;;39.90;;
41903;SDS011;27586;51.124;4.182;2023-04-09T07:05:55;45.30;;;38.72;;
41903;SDS011;27586;51.124;4.182;2023-04-09T07:08:22;43.17;;;38.00;;
41903;SDS011;27586;51.124;4.182;2023-04-09T07:10:48;42.42;;;37.78;;
41903;SDS011;27586;51.124;4.182;2023-04-09T07:13:13;43.65;;;38.45;;
41903;SDS011;27586;51.124;4.182;2023-04-09T07:15:39;44.17;;;38.88;;
41903;SDS011;27586;51.124;4.182;2023-04-09T07:18:05;44.33;;;39.35;;
41903;SDS011;27586;51.124;4.182;2023-04-09T07:20:30;43.47;;;38.58;;
41903;SDS011;27586;51.124;4.182;2023-04-09T07:22:58;44.00;;;38.25;;
41903;SDS011;27586;51.124;4.182;2023-04-09T07:25:24;40.55;;;35.75;;
41903;SDS011;27586;51.124;4.182;2023-04-09T07:27:50;41.10;;;36.47;;
41903;SDS011;27586;51.124;4.182;2023-04-09T07:30:16;40.85;;;35.65;;
41903;SDS011;27586;51.124;4.182;2023-04-09T07:32:42;42.10;;;37.45;;
41903;SDS011;27586;51.124;4.182;2023-04-09T07:35:07;41.78;;;37.13;;
41903;SDS011;27586;51.124;4.182;2023-04-09T07:37:34;40.60;;;36.17;;
41903;SDS011;27586;51.124;4.182;2023-04-09T07:40:00;42.67;;;37.78;;
41903;SDS011;27586;51.124;4.182;2023-04-09T07:42:27;41.88;;;37.03;;
41903;SDS011;27586;51.124;4.182;2023-04-09T07:44:53;41.92;;;37.30;;
41903;SDS011;27586;51.124;4.182;2023-04-09T07:47:22;41.50;;;37.10;;
41903;SDS011;27586;51.124;4.182;2023-04-09T07:49:48;40.35;;;35.13;;
41903;SDS011;27586;51.124;4.182;2023-04-09T07:52:14;46.10;;;37.28;;
41903;SDS011;27586;51.124;4.182;2023-04-09T07:54:40;41.22;;;36.03;;
41903;SDS011;27586;51.124;4.182;2023-04-09T07:57:05;41.25;;;36.30;;
41903;SDS011;27586;51.124;4.182;2023-04-09T07:59:31;41.05;;;36.53;;
41903;SDS011;27586;51.124;4.182;2023-04-09T08:01:58;41.42;;;35.22;;
41903;SDS011;27586;51.124;4.182;2023-04-09T08:04:24;43.17;;;36.13;;
41903;SDS011;27586;51.124;4.182;2023-04-09T08:06:51;43.30;;;38.20;;
41903;SDS011;27586;51.124;4.182;2023-04-09T08:09:17;43.28;;;38.60;;
41903;SDS011;27586;51.124;4.182;2023-04-09T08:11:46;41.72;;;36.78;;
41903;SDS011;27586;51.124;4.182;2023-04-09T08:14:13;43.65;;;36.75;;
41903;SDS011;27586;51.124;4.182;2023-04-09T08:16:41;38.83;;;34.60;;
41903;SDS011;27586;51.124;4.182;2023-04-09T08:19:09;40.05;;;35.45;;
41903;SDS011;27586;51.124;4.182;2023-04-09T08:21:38;39.40;;;33.70;;
41903;SDS011;27586;51.124;4.182;2023-04-09T08:24:07;38.60;;;34.38;;
41903;SDS011;27586;51.124;4.182;2023-04-09T08:26:36;38.85;;;34.60;;
41903;SDS011;27586;51.124;4.182;2023-04-09T08:29:02;40.45;;;34.88;;
41903;SDS011;27586;51.124;4.182;2023-04-09T08:31:28;37.75;;;33.67;;
41903;SDS011;27586;51.124;4.182;2023-04-09T08:33:54;39.70;;;34.72;;
41903;SDS011;27586;51.124;4.182;2023-04-09T08:36:20;39.50;;;34.33;;
41903;SDS011;27586;51.124;4.182;2023-04-09T08:38:46;37.33;;;33.30;;
41903;SDS011;27586;51.124;4.182;2023-04-09T08:41:19;38.65;;;33.88;;
41903;SDS011;27586;51.124;4.182;2023-04-09T08:43:46;37.58;;;33.38;;
41903;SDS011;27586;51.124;4.182;2023-04-09T08:46:15;40.60;;;34.53;;
41903;SDS011;27586;51.124;4.182;2023-04-09T08:48:42;38.25;;;33.78;;
41903;SDS011;27586;51.124;4.182;2023-04-09T08:51:11;36.38;;;32.40;;
41903;SDS011;27586;51.124;4.182;2023-04-09T08:53:48;38.05;;;33.30;;
41903;SDS011;27586;51.124;4.182;2023-04-09T08:56:19;38.13;;;33.83;;
41903;SDS011;27586;51.124;4.182;2023-04-09T08:58:48;37.35;;;33.25;;
41903;SDS011;27586;51.124;4.182;2023-04-09T09:01:31;39.40;;;34.22;;
41903;SDS011;27586;51.124;4.182;2023-04-09T09:04:01;37.33;;;33.25;;
41903;SDS011;27586;51.124;4.182;2023-04-09T09:06:30;37.45;;;33.15;;
41903;SDS011;27586;51.124;4.182;2023-04-09T09:09:02;40.45;;;34.90;;
41903;SDS011;27586;51.124;4.182;2023-04-09T09:11:28;36.58;;;32.40;;
41903;SDS011;27586;51.124;4.182;2023-04-09T09:13:57;37.80;;;32.42;;
41903;SDS011;27586;51.124;4.182;2023-04-09T09:16:28;35.17;;;31.35;;
41903;SDS011;27586;51.124;4.182;2023-04-09T09:18:54;37.97;;;31.92;;
41903;SDS011;27586;51.124;4.182;2023-04-09T09:21:20;30.88;;;27.52;;
41903;SDS011;27586;51.124;4.182;2023-04-09T09:23:46;34.53;;;29.20;;
41903;SDS011;27586;51.124;4.182;2023-04-09T09:26:15;33.20;;;29.50;;
41903;SDS011;27586;51.124;4.182;2023-04-09T09:28:49;32.42;;;28.83;;
41903;SDS011;27586;51.124;4.182;2023-04-09T09:31:16;31.95;;;28.33;;
41903;SDS011;27586;51.124;4.182;2023-04-09T09:33:43;32.40;;;27.83;;
41903;SDS011;27586;51.124;4.182;2023-04-09T09:36:09;33.08;;;27.80;;
41903;SDS011;27586;51.124;4.182;2023-04-09T09:38:51;31.95;;;27.15;;
41903;SDS011;27586;51.124;4.182;2023-04-09T09:41:21;30.40;;;26.27;;
41903;SDS011;27586;51.124;4.182;2023-04-09T09:43:48;32.53;;;26.02;;
41903;SDS011;27586;51.124;4.182;2023-04-09T09:46:14;32.85;;;24.88;;
41903;SDS011;27586;51.124;4.182;2023-04-09T09:48:41;26.23;;;22.63;;
41903;SDS011;27586;51.124;4.182;2023-04-09T09:51:10;28.25;;;22.95;;
41903;SDS011;27586;51.124;4.182;2023-04-09T09:53:37;29.88;;;24.55;;
41903;SDS011;27586;51.124;4.182;2023-04-09T09:56:13;27.77;;;24.35;;
41903;SDS011;27586;51.124;4.182;2023-04-09T09:58:44;29.23;;;24.55;;
41903;SDS011;27586;51.124;4.182;2023-04-09T10:01:22;27.52;;;22.38;;
41903;SDS011;27586;51.124;4.182;2023-04-09T10:03:51;26.60;;;22.30;;
41903;SDS011;27586;51.124;4.182;2023-04-09T10:06:18;28.13;;;22.92;;
41903;SDS011;27586;51.124;4.182;2023-04-09T10:08:43;21.27;;;18.98;;
41903;SDS011;27586;51.124;4.182;2023-04-09T10:11:12;23.63;;;20.85;;
41903;SDS011;27586;51.124;4.182;2023-04-09T10:13:59;28.23;;;20.08;;
41903;SDS011;27586;51.124;4.182;2023-04-09T10:16:25;21.70;;;18.15;;
41903;SDS011;27586;51.124;4.182;2023-04-09T10:18:52;20.70;;;17.75;;
41903;SDS011;27586;51.124;4.182;2023-04-09T10:21:55;20.83;;;18.63;;
41903;SDS011;27586;51.124;4.182;2023-04-09T10:24:20;20.60;;;18.27;;
41903;SDS011;27586;51.124;4.182;2023-04-09T10:26:47;18.92;;;16.92;;
41903;SDS011;27586;51.124;4.182;2023-04-09T10:29:14;22.17;;;18.55;;
41903;SDS011;27586;51.124;4.182;2023-04-09T10:34:20;21.88;;;17.73;;
41903;SDS011;27586;51.124;4.182;2023-04-09T10:36:51;21.20;;;17.17;;
41903;SDS011;27586;51.124;4.182;2023-04-09T10:39:19;20.23;;;18.00;;
41903;SDS011;27586;51.124;4.182;2023-04-09T10:41:45;21.27;;;18.25;;
41903;SDS011;27586;51.124;4.182;2023-04-09T10:44:20;19.98;;;17.88;;
41903;SDS011;27586;51.124;4.182;2023-04-09T10:46:47;19.70;;;17.60;;
41903;SDS011;27586;51.124;4.182;2023-04-09T10:51:50;20.55;;;18.30;;
41903;SDS011;27586;51.124;4.182;2023-04-09T10:59:36;20.30;;;17.13;;
41903;SDS011;27586;51.124;4.182;2023-04-09T11:02:07;20.00;;;17.20;;
41903;SDS011;27586;51.124;4.182;2023-04-09T11:04:38;21.10;;;18.27;;
41903;SDS011;27586;51.124;4.182;2023-04-09T11:07:14;20.92;;;17.77;;
41903;SDS011;27586;51.124;4.182;2023-04-09T11:09:43;21.45;;;18.33;;
41903;SDS011;27586;51.124;4.182;2023-04-09T11:12:10;22.80;;;18.77;;
41903;SDS011;27586;51.124;4.182;2023-04-09T11:14:35;22.85;;;18.50;;
41903;SDS011;27586;51.124;4.182;2023-04-09T11:17:04;22.67;;;18.63;;
41903;SDS011;27586;51.124;4.182;2023-04-09T11:19:32;21.33;;;18.48;;
41903;SDS011;27586;51.124;4.182;2023-04-09T11:21:58;18.77;;;16.30;;
41903;SDS011;27586;51.124;4.182;2023-04-09T11:24:24;19.02;;;14.60;;
41903;SDS011;27586;51.124;4.182;2023-04-09T11:26:49;16.25;;;13.65;;
41903;SDS011;27586;51.124;4.182;2023-04-09T11:29:15;19.05;;;15.85;;
41903;SDS011;27586;51.124;4.182;2023-04-09T11:31:44;18.85;;;15.90;;
41903;SDS011;27586;51.124;4.182;2023-04-09T11:34:10;18.38;;;15.85;;
41903;SDS011;27586;51.124;4.182;2023-04-09T11:36:39;16.98;;;14.65;;
41903;SDS011;27586;51.124;4.182;2023-04-09T11:39:04;17.02;;;14.73;;
41903;SDS011;27586;51.124;4.182;2023-04-09T11:41:39;16.65;;;14.82;;
41903;SDS011;27586;51.124;4.182;2023-04-09T11:44:06;18.70;;;15.80;;
41903;SDS011;27586;51.124;4.182;2023-04-09T11:46:35;20.17;;;16.35;;
41903;SDS011;27586;51.124;4.182;2023-04-09T11:49:02;19.38;;;14.82;;
41903;SDS011;27586;51.124;4.182;2023-04-09T11:51:28;19.35;;;17.30;;
41903;SDS011;27586;51.124;4.182;2023-04-09T11:53:56;18.80;;;16.25;;
41903;SDS011;27586;51.124;4.182;2023-04-09T11:56:35;18.90;;;15.07;;
41903;SDS011;27586;51.124;4.182;2023-04-09T11:59:02;16.33;;;13.98;;
41903;SDS011;27586;51.124;4.182;2023-04-09T12:01:31;18.73;;;15.02;;
41903;SDS011;27586;51.124;4.182;2023-04-09T12:03:57;18.75;;;16.75;;
41903;SDS011;27586;51.124;4.182;2023-04-09T12:06:24;17.92;;;16.05;;
41903;SDS011;27586;51.124;4.182;2023-04-09T12:08:56;18.15;;;16.25;;
41903;SDS011;27586;51.124;4.182;2023-04-09T12:11:27;19.67;;;16.65;;
41903;SDS011;27586;51.124;4.182;2023-04-09T12:14:03;19.38;;;16.88;;
41903;SDS011;27586;51.124;4.182;2023-04-09T12:16:33;20.65;;;18.40;;
41903;SDS011;27586;51.124;4.182;2023-04-09T12:19:03;20.65;;;17.60;;
41903;SDS011;27586;51.124;4.182;2023-04-09T12:24:12;18.45;;;16.55;;
41903;SDS011;27586;51.124;4.182;2023-04-09T12:26:38;21.75;;;18.98;;
41903;SDS011;27586;51.124;4.182;2023-04-09T12:29:03;19.67;;;17.60;;
41903;SDS011;27586;51.124;4.182;2023-04-09T12:31:29;19.38;;;16.48;;
41903;SDS011;27586;51.124;4.182;2023-04-09T12:33:55;22.92;;;18.48;;
41903;SDS011;27586;51.124;4.182;2023-04-09T12:36:20;19.77;;;17.58;;
41903;SDS011;27586;51.124;4.182;2023-04-09T12:38:47;20.50;;;17.08;;
41903;SDS011;27586;51.124;4.182;2023-04-09T12:41:13;19.48;;;17.00;;
41903;SDS011;27586;51.124;4.182;2023-04-09T12:43:40;19.75;;;16.98;;
41903;SDS011;27586;51.124;4.182;2023-04-09T12:46:07;20.83;;;16.48;;
41903;SDS011;27586;51.124;4.182;2023-04-09T12:48:33;18.00;;;16.02;;
41903;SDS011;27586;51.124;4.182;2023-04-09T12:50:59;17.60;;;15.15;;
41903;SDS011;27586;51.124;4.182;2023-04-09T12:53:25;18.10;;;16.20;;
41903;SDS011;27586;51.124;4.182;2023-04-09T12:55:51;20.05;;;16.50;;
41903;SDS011;27586;51.124;4.182;2023-04-09T12:58:17;18.35;;;16.15;;
41903;SDS011;27586;51.124;4.182;2023-04-09T13:00:43;16.20;;;13.75;;
41903;SDS011;27586;51.124;4.182;2023-04-09T13:03:08;16.65;;;14.80;;
41903;SDS011;27586;51.124;4.182;2023-04-09T13:05:34;17.42;;;15.63;;
41903;SDS011;27586;51.124;4.182;2023-04-09T13:08:00;17.90;;;15.55;;
41903;SDS011;27586;51.124;4.182;2023-04-09T13:10:27;16.10;;;14.40;;
41903;SDS011;27586;51.124;4.182;2023-04-09T13:12:53;15.80;;;14.07;;
41903;SDS011;27586;51.124;4.182;2023-04-09T13:15:19;16.98;;;15.13;;
41903;SDS011;27586;51.124;4.182;2023-04-09T13:17:44;16.08;;;13.30;;
41903;SDS011;27586;51.124;4.182;2023-04-09T13:20:10;13.93;;;12.35;;
41903;SDS011;27586;51.124;4.182;2023-04-09T13:22:36;14.55;;;12.65;;
41903;SDS011;27586;51.124;4.182;2023-04-09T13:25:02;14.68;;;12.27;;
41903;SDS011;27586;51.124;4.182;2023-04-09T13:27:28;13.68;;;11.82;;
41903;SDS011;27586;51.124;4.182;2023-04-09T13:29:54;15.25;;;12.65;;
41903;SDS011;27586;51.124;4.182;2023-04-09T13:32:20;16.30;;;11.85;;
41903;SDS011;27586;51.124;4.182;2023-04-09T13:34:47;16.70;;;12.98;;
41903;SDS011;27586;51.124;4.182;2023-04-09T13:37:13;14.30;;;12.85;;
41903;SDS011;27586;51.124;4.182;2023-04-09T13:39:39;12.77;;;11.40;;
41903;SDS011;27586;51.124;4.182;2023-04-09T13:42:05;16.67;;;12.48;;
41903;SDS011;27586;51.124;4.182;2023-04-09T13:44:31;14.02;;;12.48;;
41903;SDS011;27586;51.124;4.182;2023-04-09T13:46:56;14.48;;;11.70;;
41903;SDS011;27586;51.124;4.182;2023-04-09T13:49:23;13.50;;;10.82;;
41903;SDS011;27586;51.124;4.182;2023-04-09T13:51:51;10.63;;;9.45;;
41903;SDS011;27586;51.124;4.182;2023-04-09T13:54:16;12.00;;;10.35;;
41903;SDS011;27586;51.124;4.182;2023-04-09T13:56:42;13.25;;;10.27;;
41903;SDS011;27586;51.124;4.182;2023-04-09T13:59:09;11.07;;;9.77;;
41903;SDS011;27586;51.124;4.182;2023-04-09T14:01:34;10.68;;;9.45;;
41903;SDS011;27586;51.124;4.182;2023-04-09T14:04:00;11.57;;;8.80;;
41903;SDS011;27586;51.124;4.182;2023-04-09T14:06:26;10.07;;;9.02;;
41903;SDS011;27586;51.124;4.182;2023-04-09T14:08:52;9.77;;;8.57;;
41903;SDS011;27586;51.124;4.182;2023-04-09T14:11:17;10.02;;;9.02;;
41903;SDS011;27586;51.124;4.182;2023-04-09T14:13:43;10.98;;;9.88;;
41903;SDS011;27586;51.124;4.182;2023-04-09T14:16:09;11.38;;;9.07;;
41903;SDS011;27586;51.124;4.182;2023-04-09T14:18:34;11.77;;;9.38;;
41903;SDS011;27586;51.124;4.182;2023-04-09T14:21:00;8.95;;;7.90;;
41903;SDS011;27586;51.124;4.182;2023-04-09T14:23:26;9.15;;;7.50;;
41903;SDS011;27586;51.124;4.182;2023-04-09T14:25:51;7.82;;;7.03;;
41903;SDS011;27586;51.124;4.182;2023-04-09T14:28:17;8.85;;;7.75;;
41903;SDS011;27586;51.124;4.182;2023-04-09T14:30:43;8.75;;;7.68;;
41903;SDS011;27586;51.124;4.182;2023-04-09T14:33:09;10.75;;;8.25;;
41903;SDS011;27586;51.124;4.182;2023-04-09T14:35:35;9.23;;;8.05;;
41903;SDS011;27586;51.124;4.182;2023-04-09T14:38:00;8.57;;;7.68;;
41903;SDS011;27586;51.124;4.182;2023-04-09T14:40:32;8.57;;;7.60;;
41903;SDS011;27586;51.124;4.182;2023-04-09T14:42:58;8.95;;;7.75;;
41903;SDS011;27586;51.124;4.182;2023-04-09T14:45:24;9.38;;;8.32;;